sensor_id;sensor_type;location;lat;lon;timestamp;P1;durP1;ratioP1;P2;durP2;ratioP2
19024;SDS011;9645;51.448;6.260;2024-03-02T00:00:32;2.40;;;1.90;;
19024;SDS011;9645;51.448;6.260;2024-03-02T00:02:59;3.53;;;1.85;;
19024;SDS011;9645;51.448;6.260;2024-03-02T00:05:26;4.45;;;1.70;;
19024;SDS011;9645;51.448;6.260;2024-03-02T00:07:54;5.32;;;2.20;;
19024;SDS011;9645;51.448;6.260;2024-03-02T00:10:22;2.42;;;1.80;;
19024;SDS011;9645;51.448;6.260;2024-03-02T00:12:54;5.55;;;2.22;;
19024;SDS011;9645;51.448;6.260;2024-03-02T00:15:34;4.13;;;1.70;;
19024;SDS011;9645;51.448;6.260;2024-03-02T00:18:08;2.67;;;1.67;;
19024;SDS011;9645;51.448;6.260;2024-03-02T00:20:38;4.32;;;1.85;;
19024;SDS011;9645;51.448;6.260;2024-03-02T00:23:06;8.73;;;1.60;;
19024;SDS011;9645;51.448;6.260;2024-03-02T00:25:36;3.25;;;1.50;;
19024;SDS011;9645;51.448;6.260;2024-03-02T00:28:05;2.05;;;1.45;;
19024;SDS011;9645;51.448;6.260;2024-03-02T00:30:51;2.85;;;1.40;;
19024;SDS011;9645;51.448;6.260;2024-03-02T00:33:22;2.15;;;1.58;;
19024;SDS011;9645;51.448;6.260;2024-03-02T00:35:50;4.43;;;1.05;;
19024;SDS011;9645;51.448;6.260;2024-03-02T00:38:18;2.55;;;1.30;;
19024;SDS011;9645;51.448;6.260;2024-03-02T00:40:45;2.80;;;1.30;;
19024;SDS011;9645;51.448;6.260;2024-03-02T00:43:20;1.88;;;1.45;;
19024;SDS011;9645;51.448;6.260;2024-03-02T00:46:07;4.18;;;1.50;;
19024;SDS011;9645;51.448;6.260;2024-03-02T00:48:34;2.42;;;1.52;;
19024;SDS011;9645;51.448;6.260;2024-03-02T00:51:02;4.05;;;1.67;;
19024;SDS011;9645;51.448;6.260;2024-03-02T00:53:29;9.40;;;1.75;;
19024;SDS011;9645;51.448;6.260;2024-03-02T00:55:58;7.43;;;1.40;;
19024;SDS011;9645;51.448;6.260;2024-03-02T00:58:25;2.38;;;1.30;;
19024;SDS011;9645;51.448;6.260;2024-03-02T01:00:52;4.05;;;1.88;;
19024;SDS011;9645;51.448;6.260;2024-03-02T01:03:24;2.67;;;1.30;;
19024;SDS011;9645;51.448;6.260;2024-03-02T01:05:52;2.20;;;0.98;;
19024;SDS011;9645;51.448;6.260;2024-03-02T01:08:19;1.65;;;1.20;;
19024;SDS011;9645;51.448;6.260;2024-03-02T01:10:46;4.53;;;1.50;;
19024;SDS011;9645;51.448;6.260;2024-03-02T01:13:13;3.80;;;1.50;;
19024;SDS011;9645;51.448;6.260;2024-03-02T01:15:40;6.10;;;1.60;;
19024;SDS011;9645;51.448;6.260;2024-03-02T01:18:07;2.28;;;1.27;;
19024;SDS011;9645;51.448;6.260;2024-03-02T01:20:36;2.25;;;1.20;;
19024;SDS011;9645;51.448;6.260;2024-03-02T01:23:05;1.25;;;1.08;;
19024;SDS011;9645;51.448;6.260;2024-03-02T01:25:32;3.25;;;1.40;;
19024;SDS011;9645;51.448;6.260;2024-03-02T01:28:00;11.07;;;1.45;;
19024;SDS011;9645;51.448;6.260;2024-03-02T01:30:27;2.67;;;1.23;;
19024;SDS011;9645;51.448;6.260;2024-03-02T01:32:55;6.38;;;1.33;;
19024;SDS011;9645;51.448;6.260;2024-03-02T01:35:24;6.78;;;1.05;;
19024;SDS011;9645;51.448;6.260;2024-03-02T01:37:56;7.80;;;1.52;;
19024;SDS011;9645;51.448;6.260;2024-03-02T01:40:23;2.55;;;1.30;;
19024;SDS011;9645;51.448;6.260;2024-03-02T01:42:51;2.72;;;1.20;;
19024;SDS011;9645;51.448;6.260;2024-03-02T01:45:18;1.45;;;1.15;;
19024;SDS011;9645;51.448;6.260;2024-03-02T01:47:45;2.00;;;0.95;;
19024;SDS011;9645;51.448;6.260;2024-03-02T01:50:13;2.00;;;1.50;;
19024;SDS011;9645;51.448;6.260;2024-03-02T01:52:40;7.20;;;1.33;;
19024;SDS011;9645;51.448;6.260;2024-03-02T01:55:10;7.90;;;1.20;;
19024;SDS011;9645;51.448;6.260;2024-03-02T01:57:37;1.52;;;0.90;;
19024;SDS011;9645;51.448;6.260;2024-03-02T02:00:05;1.15;;;1.05;;
19024;SDS011;9645;51.448;6.260;2024-03-02T02:02:35;2.33;;;0.70;;
19024;SDS011;9645;51.448;6.260;2024-03-02T02:05:02;1.55;;;0.88;;
19024;SDS011;9645;51.448;6.260;2024-03-02T02:07:30;0.63;;;0.60;;
19024;SDS011;9645;51.448;6.260;2024-03-02T02:09:58;2.40;;;0.85;;
19024;SDS011;9645;51.448;6.260;2024-03-02T02:12:26;0.85;;;0.85;;
19024;SDS011;9645;51.448;6.260;2024-03-02T02:14:53;1.38;;;0.60;;
19024;SDS011;9645;51.448;6.260;2024-03-02T02:17:20;0.77;;;0.50;;
19024;SDS011;9645;51.448;6.260;2024-03-02T02:19:47;1.15;;;0.60;;
19024;SDS011;9645;51.448;6.260;2024-03-02T02:22:16;0.60;;;0.60;;
19024;SDS011;9645;51.448;6.260;2024-03-02T02:24:42;0.95;;;0.52;;
19024;SDS011;9645;51.448;6.260;2024-03-02T02:27:10;0.50;;;0.50;;
19024;SDS011;9645;51.448;6.260;2024-03-02T02:29:37;1.58;;;0.60;;
19024;SDS011;9645;51.448;6.260;2024-03-02T02:32:05;1.35;;;0.60;;
19024;SDS011;9645;51.448;6.260;2024-03-02T02:34:32;2.55;;;0.80;;
19024;SDS011;9645;51.448;6.260;2024-03-02T02:36:59;0.73;;;0.50;;
19024;SDS011;9645;51.448;6.260;2024-03-02T02:39:27;0.50;;;0.50;;
19024;SDS011;9645;51.448;6.260;2024-03-02T02:41:54;4.22;;;0.60;;
19024;SDS011;9645;51.448;6.260;2024-03-02T02:44:21;0.40;;;0.40;;
19024;SDS011;9645;51.448;6.260;2024-03-02T02:46:48;1.25;;;0.70;;
19024;SDS011;9645;51.448;6.260;2024-03-02T02:49:15;0.47;;;0.47;;
19024;SDS011;9645;51.448;6.260;2024-03-02T02:51:42;0.82;;;0.43;;
19024;SDS011;9645;51.448;6.260;2024-03-02T02:54:09;5.75;;;0.50;;
19024;SDS011;9645;51.448;6.260;2024-03-02T02:56:37;0.50;;;0.40;;
19024;SDS011;9645;51.448;6.260;2024-03-02T02:59:04;0.30;;;0.30;;
19024;SDS011;9645;51.448;6.260;2024-03-02T03:01:31;0.77;;;0.70;;
19024;SDS011;9645;51.448;6.260;2024-03-02T03:03:58;0.40;;;0.40;;
19024;SDS011;9645;51.448;6.260;2024-03-02T03:06:25;0.60;;;0.60;;
19024;SDS011;9645;51.448;6.260;2024-03-02T03:08:52;0.50;;;0.47;;
19024;SDS011;9645;51.448;6.260;2024-03-02T03:11:19;7.03;;;0.50;;
19024;SDS011;9645;51.448;6.260;2024-03-02T03:13:49;0.40;;;0.40;;
19024;SDS011;9645;51.448;6.260;2024-03-02T03:16:16;0.88;;;0.40;;
19024;SDS011;9645;51.448;6.260;2024-03-02T03:18:43;0.77;;;0.52;;
19024;SDS011;9645;51.448;6.260;2024-03-02T03:21:10;0.60;;;0.50;;
19024;SDS011;9645;51.448;6.260;2024-03-02T03:23:37;0.98;;;0.40;;
19024;SDS011;9645;51.448;6.260;2024-03-02T03:26:04;2.35;;;0.50;;
19024;SDS011;9645;51.448;6.260;2024-03-02T03:28:30;1.38;;;0.40;;
19024;SDS011;9645;51.448;6.260;2024-03-02T03:30:59;0.90;;;0.50;;
19024;SDS011;9645;51.448;6.260;2024-03-02T03:33:27;0.65;;;0.40;;
19024;SDS011;9645;51.448;6.260;2024-03-02T03:35:54;3.25;;;0.70;;
19024;SDS011;9645;51.448;6.260;2024-03-02T03:38:21;1.13;;;0.60;;
19024;SDS011;9645;51.448;6.260;2024-03-02T03:40:48;0.95;;;0.40;;
19024;SDS011;9645;51.448;6.260;2024-03-02T03:43:15;0.70;;;0.70;;
19024;SDS011;9645;51.448;6.260;2024-03-02T03:45:41;1.58;;;0.40;;
19024;SDS011;9645;51.448;6.260;2024-03-02T03:48:10;0.60;;;0.40;;
19024;SDS011;9645;51.448;6.260;2024-03-02T03:50:37;0.40;;;0.40;;
19024;SDS011;9645;51.448;6.260;2024-03-02T03:53:04;0.50;;;0.40;;
19024;SDS011;9645;51.448;6.260;2024-03-02T03:55:31;0.30;;;0.30;;
19024;SDS011;9645;51.448;6.260;2024-03-02T03:57:57;1.67;;;0.60;;
19024;SDS011;9645;51.448;6.260;2024-03-02T04:00:25;4.32;;;0.30;;
19024;SDS011;9645;51.448;6.260;2024-03-02T04:02:52;0.47;;;0.30;;
19024;SDS011;9645;51.448;6.260;2024-03-02T04:05:20;0.57;;;0.40;;
19024;SDS011;9645;51.448;6.260;2024-03-02T04:07:47;0.70;;;0.30;;
19024;SDS011;9645;51.448;6.260;2024-03-02T04:10:14;1.75;;;0.50;;
19024;SDS011;9645;51.448;6.260;2024-03-02T04:41:19;0.32;;;0.30;;
19024;SDS011;9645;51.448;6.260;2024-03-02T04:43:46;0.40;;;0.30;;
19024;SDS011;9645;51.448;6.260;2024-03-02T04:46:13;0.65;;;0.45;;
19024;SDS011;9645;51.448;6.260;2024-03-02T04:48:40;3.13;;;0.50;;
19024;SDS011;9645;51.448;6.260;2024-03-02T04:51:07;1.05;;;0.40;;
19024;SDS011;9645;51.448;6.260;2024-03-02T04:53:34;1.25;;;0.60;;
19024;SDS011;9645;51.448;6.260;2024-03-02T04:56:01;0.40;;;0.40;;
19024;SDS011;9645;51.448;6.260;2024-03-02T04:59:05;0.57;;;0.47;;
19024;SDS011;9645;51.448;6.260;2024-03-02T05:01:32;1.30;;;0.70;;
19024;SDS011;9645;51.448;6.260;2024-03-02T05:03:59;2.63;;;0.50;;
19024;SDS011;9645;51.448;6.260;2024-03-02T05:06:26;5.28;;;0.70;;
19024;SDS011;9645;51.448;6.260;2024-03-02T05:08:53;1.23;;;0.50;;
19024;SDS011;9645;51.448;6.260;2024-03-02T05:11:20;1.48;;;0.80;;
19024;SDS011;9645;51.448;6.260;2024-03-02T05:14:25;0.65;;;0.65;;
19024;SDS011;9645;51.448;6.260;2024-03-02T05:16:53;0.70;;;0.70;;
19024;SDS011;9645;51.448;6.260;2024-03-02T05:19:20;3.33;;;1.15;;
19024;SDS011;9645;51.448;6.260;2024-03-02T05:21:47;1.05;;;0.95;;
19024;SDS011;9645;51.448;6.260;2024-03-02T05:24:14;1.92;;;0.70;;
19024;SDS011;9645;51.448;6.260;2024-03-02T05:26:41;1.77;;;0.80;;
19024;SDS011;9645;51.448;6.260;2024-03-02T05:29:08;1.13;;;0.70;;
19024;SDS011;9645;51.448;6.260;2024-03-02T05:31:37;0.70;;;0.70;;
19024;SDS011;9645;51.448;6.260;2024-03-02T05:34:04;3.25;;;0.90;;
19024;SDS011;9645;51.448;6.260;2024-03-02T05:36:31;0.60;;;0.60;;
19024;SDS011;9645;51.448;6.260;2024-03-02T05:38:58;1.20;;;0.80;;
19024;SDS011;9645;51.448;6.260;2024-03-02T05:41:25;1.75;;;0.70;;
19024;SDS011;9645;51.448;6.260;2024-03-02T05:43:52;2.90;;;1.10;;
19024;SDS011;9645;51.448;6.260;2024-03-02T05:46:19;2.72;;;0.82;;
19024;SDS011;9645;51.448;6.260;2024-03-02T05:48:47;0.80;;;0.60;;
19024;SDS011;9645;51.448;6.260;2024-03-02T05:51:14;1.30;;;0.93;;
19024;SDS011;9645;51.448;6.260;2024-03-02T05:53:41;4.32;;;0.68;;
19024;SDS011;9645;51.448;6.260;2024-03-02T05:56:08;0.68;;;0.65;;
19024;SDS011;9645;51.448;6.260;2024-03-02T05:58:35;0.88;;;0.82;;
19024;SDS011;9645;51.448;6.260;2024-03-02T06:01:14;0.95;;;0.65;;
19024;SDS011;9645;51.448;6.260;2024-03-02T06:03:43;0.80;;;0.80;;
19024;SDS011;9645;51.448;6.260;2024-03-02T06:06:11;1.10;;;1.00;;
19024;SDS011;9645;51.448;6.260;2024-03-02T06:08:38;2.38;;;1.08;;
19024;SDS011;9645;51.448;6.260;2024-03-02T06:11:05;2.80;;;0.80;;
19024;SDS011;9645;51.448;6.260;2024-03-02T06:13:32;2.05;;;0.95;;
19024;SDS011;9645;51.448;6.260;2024-03-02T06:15:59;4.88;;;0.75;;
19024;SDS011;9645;51.448;6.260;2024-03-02T06:18:26;2.67;;;0.73;;
19024;SDS011;9645;51.448;6.260;2024-03-02T06:20:53;1.15;;;0.60;;
19024;SDS011;9645;51.448;6.260;2024-03-02T06:23:21;2.40;;;0.85;;
19024;SDS011;9645;51.448;6.260;2024-03-02T06:25:48;1.02;;;0.60;;
19024;SDS011;9645;51.448;6.260;2024-03-02T06:28:15;0.80;;;0.60;;
19024;SDS011;9645;51.448;6.260;2024-03-02T06:30:42;0.60;;;0.50;;
19024;SDS011;9645;51.448;6.260;2024-03-02T06:33:10;1.35;;;0.70;;
19024;SDS011;9645;51.448;6.260;2024-03-02T06:35:37;1.95;;;0.40;;
19024;SDS011;9645;51.448;6.260;2024-03-02T06:38:04;1.10;;;0.60;;
19024;SDS011;9645;51.448;6.260;2024-03-02T06:40:32;0.77;;;0.50;;
19024;SDS011;9645;51.448;6.260;2024-03-02T06:42:59;4.90;;;0.70;;
19024;SDS011;9645;51.448;6.260;2024-03-02T06:45:26;1.90;;;0.93;;
19024;SDS011;9645;51.448;6.260;2024-03-02T06:47:55;0.68;;;0.68;;
19024;SDS011;9645;51.448;6.260;2024-03-02T06:50:22;1.55;;;0.50;;
19024;SDS011;9645;51.448;6.260;2024-03-02T06:52:49;0.85;;;0.85;;
19024;SDS011;9645;51.448;6.260;2024-03-02T06:55:16;0.60;;;0.57;;
19024;SDS011;9645;51.448;6.260;2024-03-02T06:57:44;2.05;;;0.60;;
19024;SDS011;9645;51.448;6.260;2024-03-02T07:00:12;0.68;;;0.65;;
19024;SDS011;9645;51.448;6.260;2024-03-02T07:02:40;0.75;;;0.52;;
19024;SDS011;9645;51.448;6.260;2024-03-02T07:05:07;1.35;;;0.70;;
19024;SDS011;9645;51.448;6.260;2024-03-02T07:07:34;1.65;;;0.68;;
19024;SDS011;9645;51.448;6.260;2024-03-02T07:10:02;3.50;;;0.80;;
19024;SDS011;9645;51.448;6.260;2024-03-02T07:12:30;1.45;;;0.65;;
19024;SDS011;9645;51.448;6.260;2024-03-02T07:14:58;6.15;;;0.80;;
19024;SDS011;9645;51.448;6.260;2024-03-02T07:17:48;2.58;;;0.80;;
19024;SDS011;9645;51.448;6.260;2024-03-02T07:20:16;2.65;;;0.75;;
19024;SDS011;9645;51.448;6.260;2024-03-02T07:22:43;1.50;;;0.50;;
19024;SDS011;9645;51.448;6.260;2024-03-02T07:25:12;2.92;;;0.80;;
19024;SDS011;9645;51.448;6.260;2024-03-02T07:27:39;0.65;;;0.55;;
19024;SDS011;9645;51.448;6.260;2024-03-02T07:30:08;7.03;;;1.00;;
19024;SDS011;9645;51.448;6.260;2024-03-02T07:32:36;1.15;;;0.95;;
19024;SDS011;9645;51.448;6.260;2024-03-02T07:35:04;2.50;;;0.75;;
19024;SDS011;9645;51.448;6.260;2024-03-02T07:37:32;1.50;;;1.00;;
19024;SDS011;9645;51.448;6.260;2024-03-02T07:39:59;1.20;;;1.10;;
19024;SDS011;9645;51.448;6.260;2024-03-02T07:42:27;0.95;;;0.95;;
19024;SDS011;9645;51.448;6.260;2024-03-02T07:44:55;2.10;;;1.10;;
19024;SDS011;9645;51.448;6.260;2024-03-02T07:47:23;1.55;;;1.30;;
19024;SDS011;9645;51.448;6.260;2024-03-02T07:49:50;0.93;;;0.70;;
19024;SDS011;9645;51.448;6.260;2024-03-02T07:52:18;1.20;;;1.10;;
19024;SDS011;9645;51.448;6.260;2024-03-02T07:54:45;1.73;;;1.10;;
19024;SDS011;9645;51.448;6.260;2024-03-02T07:57:12;1.20;;;1.10;;
19024;SDS011;9645;51.448;6.260;2024-03-02T07:59:39;1.97;;;0.83;;
19024;SDS011;9645;51.448;6.260;2024-03-02T08:02:06;1.80;;;0.73;;
19024;SDS011;9645;51.448;6.260;2024-03-02T08:04:35;0.70;;;0.70;;
19024;SDS011;9645;51.448;6.260;2024-03-02T08:07:02;0.63;;;0.63;;
19024;SDS011;9645;51.448;6.260;2024-03-02T08:09:29;1.33;;;0.80;;
19024;SDS011;9645;51.448;6.260;2024-03-02T08:11:56;2.90;;;0.90;;
19024;SDS011;9645;51.448;6.260;2024-03-02T08:14:23;1.13;;;0.70;;
19024;SDS011;9645;51.448;6.260;2024-03-02T08:16:50;2.00;;;0.83;;
19024;SDS011;9645;51.448;6.260;2024-03-02T08:19:17;0.63;;;0.60;;
19024;SDS011;9645;51.448;6.260;2024-03-02T08:21:47;1.57;;;0.80;;
19024;SDS011;9645;51.448;6.260;2024-03-02T08:24:14;0.83;;;0.77;;
19024;SDS011;9645;51.448;6.260;2024-03-02T08:26:42;0.63;;;0.57;;
19024;SDS011;9645;51.448;6.260;2024-03-02T08:29:08;1.00;;;0.60;;
19024;SDS011;9645;51.448;6.260;2024-03-02T08:31:36;2.93;;;0.60;;
19024;SDS011;9645;51.448;6.260;2024-03-02T08:34:03;1.17;;;0.50;;
19024;SDS011;9645;51.448;6.260;2024-03-02T08:36:30;1.03;;;0.50;;
19024;SDS011;9645;51.448;6.260;2024-03-02T08:38:58;1.10;;;0.80;;
19024;SDS011;9645;51.448;6.260;2024-03-02T08:41:25;0.77;;;0.70;;
19024;SDS011;9645;51.448;6.260;2024-03-02T08:43:52;1.20;;;0.60;;
19024;SDS011;9645;51.448;6.260;2024-03-02T08:46:19;3.03;;;0.70;;
19024;SDS011;9645;51.448;6.260;2024-03-02T08:48:47;0.67;;;0.40;;
19024;SDS011;9645;51.448;6.260;2024-03-02T08:51:14;1.53;;;0.60;;
19024;SDS011;9645;51.448;6.260;2024-03-02T08:53:41;0.67;;;0.67;;
19024;SDS011;9645;51.448;6.260;2024-03-02T08:56:10;1.00;;;0.60;;
19024;SDS011;9645;51.448;6.260;2024-03-02T08:58:38;0.90;;;0.40;;
19024;SDS011;9645;51.448;6.260;2024-03-02T09:01:05;2.10;;;0.80;;
19024;SDS011;9645;51.448;6.260;2024-03-02T09:03:33;1.37;;;0.70;;
19024;SDS011;9645;51.448;6.260;2024-03-02T09:06:00;0.40;;;0.40;;
19024;SDS011;9645;51.448;6.260;2024-03-02T09:08:28;2.50;;;0.57;;
19024;SDS011;9645;51.448;6.260;2024-03-02T09:10:55;1.33;;;0.60;;
19024;SDS011;9645;51.448;6.260;2024-03-02T09:13:24;3.50;;;0.60;;
19024;SDS011;9645;51.448;6.260;2024-03-02T09:15:51;2.93;;;0.60;;
19024;SDS011;9645;51.448;6.260;2024-03-02T09:18:18;0.70;;;0.63;;
19024;SDS011;9645;51.448;6.260;2024-03-02T09:20:46;0.73;;;0.50;;
19024;SDS011;9645;51.448;6.260;2024-03-02T09:23:13;1.60;;;0.63;;
19024;SDS011;9645;51.448;6.260;2024-03-02T09:25:41;1.50;;;0.60;;
19024;SDS011;9645;51.448;6.260;2024-03-02T09:28:08;0.90;;;0.60;;
19024;SDS011;9645;51.448;6.260;2024-03-02T09:30:36;1.60;;;0.80;;
19024;SDS011;9645;51.448;6.260;2024-03-02T09:33:04;1.17;;;0.67;;
19024;SDS011;9645;51.448;6.260;2024-03-02T09:35:32;1.10;;;0.60;;
19024;SDS011;9645;51.448;6.260;2024-03-02T09:38:00;3.20;;;1.17;;
19024;SDS011;9645;51.448;6.260;2024-03-02T09:40:28;2.37;;;0.90;;
19024;SDS011;9645;51.448;6.260;2024-03-02T09:42:56;2.43;;;0.70;;
19024;SDS011;9645;51.448;6.260;2024-03-02T09:45:23;1.50;;;0.73;;
19024;SDS011;9645;51.448;6.260;2024-03-02T09:47:53;0.50;;;0.50;;
19024;SDS011;9645;51.448;6.260;2024-03-02T09:50:20;6.73;;;1.00;;
19024;SDS011;9645;51.448;6.260;2024-03-02T09:52:48;6.47;;;0.83;;
19024;SDS011;9645;51.448;6.260;2024-03-02T09:55:15;2.63;;;0.60;;
19024;SDS011;9645;51.448;6.260;2024-03-02T09:57:44;5.80;;;0.73;;
19024;SDS011;9645;51.448;6.260;2024-03-02T10:00:14;4.87;;;0.90;;
19024;SDS011;9645;51.448;6.260;2024-03-02T10:02:41;0.93;;;0.70;;
19024;SDS011;9645;51.448;6.260;2024-03-02T10:05:10;1.03;;;0.87;;
19024;SDS011;9645;51.448;6.260;2024-03-02T10:07:38;8.13;;;1.40;;
19024;SDS011;9645;51.448;6.260;2024-03-02T10:10:12;2.63;;;1.10;;
19024;SDS011;9645;51.448;6.260;2024-03-02T10:12:40;1.27;;;0.60;;
19024;SDS011;9645;51.448;6.260;2024-03-02T10:15:07;1.37;;;0.90;;
19024;SDS011;9645;51.448;6.260;2024-03-02T10:17:35;2.10;;;1.10;;
19024;SDS011;9645;51.448;6.260;2024-03-02T10:20:24;1.47;;;1.10;;
19024;SDS011;9645;51.448;6.260;2024-03-02T10:22:54;2.33;;;1.00;;
19024;SDS011;9645;51.448;6.260;2024-03-02T10:25:28;4.33;;;1.20;;
19024;SDS011;9645;51.448;6.260;2024-03-02T10:27:57;0.97;;;0.90;;
19024;SDS011;9645;51.448;6.260;2024-03-02T10:30:24;1.93;;;0.80;;
19024;SDS011;9645;51.448;6.260;2024-03-02T10:32:52;0.97;;;0.97;;
19024;SDS011;9645;51.448;6.260;2024-03-02T10:35:20;2.20;;;1.00;;
19024;SDS011;9645;51.448;6.260;2024-03-02T10:37:49;1.20;;;1.10;;
19024;SDS011;9645;51.448;6.260;2024-03-02T10:40:17;1.20;;;1.10;;
19024;SDS011;9645;51.448;6.260;2024-03-02T10:42:44;4.43;;;1.23;;
19024;SDS011;9645;51.448;6.260;2024-03-02T10:45:12;1.63;;;1.10;;
19024;SDS011;9645;51.448;6.260;2024-03-02T10:47:40;1.80;;;1.10;;
19024;SDS011;9645;51.448;6.260;2024-03-02T10:50:08;1.47;;;1.30;;
19024;SDS011;9645;51.448;6.260;2024-03-02T10:52:35;0.97;;;0.97;;
19024;SDS011;9645;51.448;6.260;2024-03-02T10:55:05;2.20;;;1.20;;
19024;SDS011;9645;51.448;6.260;2024-03-02T10:57:36;1.37;;;1.00;;
19024;SDS011;9645;51.448;6.260;2024-03-02T11:00:11;1.30;;;1.10;;
19024;SDS011;9645;51.448;6.260;2024-03-02T11:02:42;1.20;;;1.10;;
19024;SDS011;9645;51.448;6.260;2024-03-02T11:05:22;4.00;;;1.30;;
19024;SDS011;9645;51.448;6.260;2024-03-02T11:07:53;2.60;;;1.27;;
19024;SDS011;9645;51.448;6.260;2024-03-02T11:10:29;6.03;;;1.20;;
19024;SDS011;9645;51.448;6.260;2024-03-02T11:13:01;13.17;;;2.10;;
19024;SDS011;9645;51.448;6.260;2024-03-02T11:15:31;5.57;;;1.03;;
19024;SDS011;9645;51.448;6.260;2024-03-02T11:18:00;3.50;;;1.10;;
19024;SDS011;9645;51.448;6.260;2024-03-02T11:20:30;5.17;;;1.40;;
19024;SDS011;9645;51.448;6.260;2024-03-02T11:22:57;5.30;;;1.60;;
19024;SDS011;9645;51.448;6.260;2024-03-02T11:25:32;6.57;;;1.53;;
19024;SDS011;9645;51.448;6.260;2024-03-02T11:28:00;1.10;;;1.00;;
19024;SDS011;9645;51.448;6.260;2024-03-02T11:33:15;2.73;;;1.00;;
19024;SDS011;9645;51.448;6.260;2024-03-02T11:35:50;0.80;;;0.80;;
19024;SDS011;9645;51.448;6.260;2024-03-02T11:38:17;1.10;;;1.00;;
19024;SDS011;9645;51.448;6.260;2024-03-02T11:40:46;1.53;;;0.90;;
19024;SDS011;9645;51.448;6.260;2024-03-02T11:43:13;1.43;;;1.17;;
19024;SDS011;9645;51.448;6.260;2024-03-02T11:45:41;3.50;;;0.87;;
19024;SDS011;9645;51.448;6.260;2024-03-02T11:48:10;3.00;;;1.30;;
19024;SDS011;9645;51.448;6.260;2024-03-02T11:50:40;2.13;;;0.90;;
19024;SDS011;9645;51.448;6.260;2024-03-02T11:53:09;3.20;;;0.80;;
19024;SDS011;9645;51.448;6.260;2024-03-02T11:55:39;0.70;;;0.70;;
19024;SDS011;9645;51.448;6.260;2024-03-02T11:58:10;1.53;;;1.00;;
19024;SDS011;9645;51.448;6.260;2024-03-02T12:00:37;2.77;;;1.50;;
19024;SDS011;9645;51.448;6.260;2024-03-02T12:03:04;3.07;;;1.27;;
19024;SDS011;9645;51.448;6.260;2024-03-02T12:05:33;3.80;;;0.90;;
19024;SDS011;9645;51.448;6.260;2024-03-02T12:08:01;5.07;;;1.23;;
19024;SDS011;9645;51.448;6.260;2024-03-02T12:10:30;3.13;;;0.87;;
19024;SDS011;9645;51.448;6.260;2024-03-02T12:12:57;2.50;;;1.10;;
19024;SDS011;9645;51.448;6.260;2024-03-02T12:15:27;2.20;;;1.00;;
19024;SDS011;9645;51.448;6.260;2024-03-02T12:17:56;1.53;;;0.87;;
19024;SDS011;9645;51.448;6.260;2024-03-02T12:20:28;4.40;;;1.00;;
19024;SDS011;9645;51.448;6.260;2024-03-02T12:22:56;0.70;;;0.70;;
19024;SDS011;9645;51.448;6.260;2024-03-02T12:25:24;1.43;;;0.90;;
19024;SDS011;9645;51.448;6.260;2024-03-02T12:27:52;1.70;;;0.83;;
19024;SDS011;9645;51.448;6.260;2024-03-02T12:30:20;4.17;;;1.03;;
19024;SDS011;9645;51.448;6.260;2024-03-02T12:32:49;4.90;;;0.70;;
19024;SDS011;9645;51.448;6.260;2024-03-02T12:35:17;2.60;;;0.90;;
19024;SDS011;9645;51.448;6.260;2024-03-02T12:37:46;2.50;;;1.07;;
19024;SDS011;9645;51.448;6.260;2024-03-02T12:40:15;2.47;;;1.00;;
19024;SDS011;9645;51.448;6.260;2024-03-02T12:42:43;4.00;;;0.87;;
19024;SDS011;9645;51.448;6.260;2024-03-02T12:45:11;1.53;;;0.80;;
19024;SDS011;9645;51.448;6.260;2024-03-02T12:47:39;1.43;;;0.87;;
19024;SDS011;9645;51.448;6.260;2024-03-02T12:50:08;2.00;;;1.23;;
19024;SDS011;9645;51.448;6.260;2024-03-02T12:52:36;2.93;;;0.77;;
19024;SDS011;9645;51.448;6.260;2024-03-02T12:55:04;6.00;;;1.30;;
19024;SDS011;9645;51.448;6.260;2024-03-02T12:57:32;10.20;;;0.97;;
19024;SDS011;9645;51.448;6.260;2024-03-02T12:59:59;4.27;;;1.17;;
19024;SDS011;9645;51.448;6.260;2024-03-02T13:02:30;2.90;;;1.33;;
19024;SDS011;9645;51.448;6.260;2024-03-02T13:04:59;3.27;;;1.13;;
19024;SDS011;9645;51.448;6.260;2024-03-02T13:07:27;3.60;;;1.00;;
19024;SDS011;9645;51.448;6.260;2024-03-02T13:09:55;2.63;;;1.50;;
19024;SDS011;9645;51.448;6.260;2024-03-02T13:12:23;2.10;;;1.70;;
19024;SDS011;9645;51.448;6.260;2024-03-02T13:14:51;5.10;;;1.50;;
19024;SDS011;9645;51.448;6.260;2024-03-02T13:17:19;3.27;;;1.37;;
19024;SDS011;9645;51.448;6.260;2024-03-02T13:19:52;7.40;;;1.50;;
19024;SDS011;9645;51.448;6.260;2024-03-02T13:22:19;2.37;;;1.10;;
19024;SDS011;9645;51.448;6.260;2024-03-02T13:24:49;4.70;;;1.00;;
19024;SDS011;9645;51.448;6.260;2024-03-02T13:27:16;0.80;;;0.80;;
19024;SDS011;9645;51.448;6.260;2024-03-02T13:29:45;4.20;;;0.87;;
19024;SDS011;9645;51.448;6.260;2024-03-02T13:32:13;1.87;;;0.90;;
19024;SDS011;9645;51.448;6.260;2024-03-02T13:34:40;2.17;;;1.27;;
19024;SDS011;9645;51.448;6.260;2024-03-02T13:37:08;1.47;;;1.00;;
19024;SDS011;9645;51.448;6.260;2024-03-02T13:39:35;2.20;;;1.27;;
19024;SDS011;9645;51.448;6.260;2024-03-02T13:42:08;3.60;;;0.93;;
19024;SDS011;9645;51.448;6.260;2024-03-02T13:44:37;3.97;;;0.80;;
19024;SDS011;9645;51.448;6.260;2024-03-02T13:47:05;1.63;;;1.00;;
19024;SDS011;9645;51.448;6.260;2024-03-02T13:49:35;4.03;;;1.10;;
19024;SDS011;9645;51.448;6.260;2024-03-02T13:52:03;2.37;;;1.13;;
19024;SDS011;9645;51.448;6.260;2024-03-02T13:54:39;6.80;;;1.00;;
19024;SDS011;9645;51.448;6.260;2024-03-02T13:57:08;1.70;;;1.10;;
19024;SDS011;9645;51.448;6.260;2024-03-02T13:59:36;3.27;;;1.70;;
19024;SDS011;9645;51.448;6.260;2024-03-02T14:02:03;3.47;;;1.30;;
19024;SDS011;9645;51.448;6.260;2024-03-02T14:04:31;2.60;;;1.10;;
19024;SDS011;9645;51.448;6.260;2024-03-02T14:07:00;4.30;;;1.47;;
19024;SDS011;9645;51.448;6.260;2024-03-02T14:09:28;2.40;;;1.73;;
19024;SDS011;9645;51.448;6.260;2024-03-02T14:11:55;1.87;;;1.50;;
19024;SDS011;9645;51.448;6.260;2024-03-02T14:14:27;4.10;;;1.30;;
19024;SDS011;9645;51.448;6.260;2024-03-02T14:16:54;3.53;;;1.10;;
19024;SDS011;9645;51.448;6.260;2024-03-02T14:19:25;1.10;;;1.10;;
19024;SDS011;9645;51.448;6.260;2024-03-02T14:21:52;2.97;;;1.17;;
19024;SDS011;9645;51.448;6.260;2024-03-02T14:24:21;4.37;;;1.37;;
19024;SDS011;9645;51.448;6.260;2024-03-02T14:26:55;6.43;;;1.60;;
19024;SDS011;9645;51.448;6.260;2024-03-02T14:29:24;1.40;;;1.30;;
19024;SDS011;9645;51.448;6.260;2024-03-02T14:31:53;2.53;;;1.33;;
19024;SDS011;9645;51.448;6.260;2024-03-02T14:34:20;4.43;;;1.20;;
19024;SDS011;9645;51.448;6.260;2024-03-02T14:36:47;2.23;;;1.30;;
19024;SDS011;9645;51.448;6.260;2024-03-02T14:39:14;1.70;;;1.53;;
19024;SDS011;9645;51.448;6.260;2024-03-02T14:41:41;1.60;;;1.50;;
19024;SDS011;9645;51.448;6.260;2024-03-02T14:44:08;1.70;;;1.60;;
19024;SDS011;9645;51.448;6.260;2024-03-02T14:46:38;3.67;;;1.50;;
19024;SDS011;9645;51.448;6.260;2024-03-02T14:49:05;1.83;;;1.47;;
19024;SDS011;9645;51.448;6.260;2024-03-02T14:51:32;4.90;;;1.70;;
19024;SDS011;9645;51.448;6.260;2024-03-02T14:54:00;2.60;;;1.50;;
19024;SDS011;9645;51.448;6.260;2024-03-02T14:56:28;5.23;;;1.90;;
19024;SDS011;9645;51.448;6.260;2024-03-02T14:58:55;3.37;;;2.10;;
19024;SDS011;9645;51.448;6.260;2024-03-02T15:01:23;1.90;;;1.57;;
19024;SDS011;9645;51.448;6.260;2024-03-02T15:03:53;1.50;;;1.40;;
19024;SDS011;9645;51.448;6.260;2024-03-02T15:06:21;1.53;;;1.43;;
19024;SDS011;9645;51.448;6.260;2024-03-02T15:08:48;2.20;;;1.53;;
19024;SDS011;9645;51.448;6.260;2024-03-02T15:11:16;3.70;;;1.70;;
19024;SDS011;9645;51.448;6.260;2024-03-02T15:13:43;3.50;;;1.93;;
19024;SDS011;9645;51.448;6.260;2024-03-02T15:16:11;3.33;;;1.30;;
19024;SDS011;9645;51.448;6.260;2024-03-02T15:18:38;5.47;;;1.60;;
19024;SDS011;9645;51.448;6.260;2024-03-02T15:21:08;2.43;;;1.57;;
19024;SDS011;9645;51.448;6.260;2024-03-02T15:23:38;2.70;;;1.40;;
19024;SDS011;9645;51.448;6.260;2024-03-02T15:26:06;3.00;;;1.50;;
19024;SDS011;9645;51.448;6.260;2024-03-02T15:28:34;1.70;;;1.60;;
19024;SDS011;9645;51.448;6.260;2024-03-02T15:31:01;1.80;;;1.40;;
19024;SDS011;9645;51.448;6.260;2024-03-02T15:33:31;2.07;;;1.60;;
19024;SDS011;9645;51.448;6.260;2024-03-02T15:35:59;2.40;;;1.47;;
19024;SDS011;9645;51.448;6.260;2024-03-02T15:38:28;1.60;;;1.30;;